Saavedra, Argentina
Current Conditions -  °F | °C
As of 8:00 PM on Thursday 18 Dec 2014 (Local Time) from SAZM Reporting Station
Clear Clear  
Wind Chill: 81°   Ceiling: Unl
Heat Index: 81°   Visibility: 6mi
Dew Point: 59°   Wind: 7mph
Humidity: 48%   Direction: 360°N
Pressure: 29.59"   Gusts: NA
Location:  37.75°S, 62.37°W
Report Text: SAZM 182300Z 36006KT CAVOK 27/15 Q1002
Loading
Personal Weather Stations






























Interactive Weather Map New forecast layout! Learn more

10-Day Weather Forecast

Advertisements
Track Severe Weather on mobile